createdAt,value
2023-09-08T00:00:34.342Z,0.00
2023-09-08T00:01:34.366Z,0.00
2023-09-08T00:02:34.433Z,0.00
2023-09-08T00:03:34.344Z,0.00
2023-09-08T00:04:40.307Z,0.00
2023-09-08T00:05:34.262Z,0.00
2023-09-08T00:06:34.270Z,0.00
2023-09-08T00:07:36.835Z,0.00
2023-09-08T00:08:34.520Z,0.00
2023-09-08T00:09:34.193Z,0.00
2023-09-08T00:10:34.191Z,0.00
2023-09-08T00:11:34.187Z,0.00
2023-09-08T00:12:34.155Z,0.00
2023-09-08T00:13:34.202Z,0.00
2023-09-08T00:14:34.135Z,0.00
2023-09-08T00:15:34.148Z,0.00
2023-09-08T00:16:34.256Z,0.00
2023-09-08T00:17:34.148Z,0.00
2023-09-08T00:18:40.077Z,0.00
2023-09-08T00:19:34.128Z,0.00
2023-09-08T00:20:34.086Z,0.00
2023-09-08T00:21:34.039Z,0.00
2023-09-08T00:22:34.080Z,0.00
2023-09-08T00:23:34.058Z,0.00
2023-09-08T00:24:34.026Z,0.00
2023-09-08T00:25:34.000Z,0.00
2023-09-08T00:26:34.008Z,0.00
2023-09-08T00:27:33.989Z,0.00
2023-09-08T00:28:34.183Z,0.00
2023-09-08T00:29:34.009Z,0.00
2023-09-08T00:30:33.910Z,0.00
2023-09-08T00:31:33.940Z,0.00
2023-09-08T00:32:34.051Z,0.00
2023-09-08T00:33:33.954Z,0.00
2023-09-08T00:34:33.867Z,0.00
2023-09-08T00:35:33.878Z,0.00
2023-09-08T00:36:33.836Z,0.00
2023-09-08T00:37:33.874Z,0.00
2023-09-08T00:38:34.247Z,0.00
2023-09-08T00:39:33.827Z,0.00
2023-09-08T00:40:33.800Z,0.00
2023-09-08T00:41:33.847Z,0.00
2023-09-08T00:42:33.761Z,0.00
2023-09-08T00:43:33.763Z,0.00
2023-09-08T00:44:33.756Z,0.00
2023-09-08T00:45:33.787Z,0.00
2023-09-08T00:46:33.794Z,0.00
2023-09-08T00:47:33.736Z,0.00
2023-09-08T00:48:34.030Z,0.00
2023-09-08T00:49:33.693Z,0.00
2023-09-08T00:50:33.681Z,0.00
2023-09-08T00:51:33.671Z,0.00
2023-09-08T00:52:33.670Z,0.00
2023-09-08T00:53:33.635Z,0.00
2023-09-08T00:54:33.605Z,0.00
2023-09-08T00:55:33.595Z,0.00
2023-09-08T00:56:33.669Z,0.00
2023-09-08T00:57:33.574Z,0.00
2023-09-08T00:58:33.847Z,0.00
2023-09-08T00:59:33.553Z,0.00
2023-09-08T01:00:33.548Z,0.00
2023-09-08T01:01:33.629Z,0.00
2023-09-08T01:02:33.603Z,0.00
2023-09-08T01:03:33.554Z,0.00
2023-09-08T01:04:33.565Z,0.00
2023-09-08T01:05:33.614Z,0.00
2023-09-08T01:06:33.476Z,0.00
2023-09-08T01:07:33.456Z,0.00
2023-09-08T01:08:33.761Z,0.00
2023-09-08T01:09:33.522Z,0.00
2023-09-08T01:10:33.413Z,0.00
2023-09-08T01:11:33.420Z,0.00
2023-09-08T01:12:33.386Z,0.00
2023-09-08T01:13:33.385Z,0.00
2023-09-08T01:14:33.361Z,0.00
2023-09-08T01:15:33.374Z,0.00
2023-09-08T01:16:33.357Z,0.00
2023-09-08T01:17:33.323Z,0.00
2023-09-08T01:18:33.673Z,0.00
2023-09-08T01:19:33.316Z,0.00
2023-09-08T01:20:33.277Z,0.00
2023-09-08T01:21:33.330Z,0.00
2023-09-08T01:22:33.259Z,0.00
2023-09-08T01:23:33.259Z,0.00
2023-09-08T01:24:33.251Z,0.00
2023-09-08T01:25:33.220Z,0.00
2023-09-08T01:26:33.199Z,0.00
2023-09-08T01:27:33.208Z,0.00
2023-09-08T01:28:33.468Z,0.00
2023-09-08T01:29:33.156Z,0.00
2023-09-08T01:30:33.167Z,0.00
2023-09-08T01:31:33.172Z,0.00
2023-09-08T01:32:33.124Z,0.00
2023-09-08T01:33:33.125Z,0.00
2023-09-08T01:34:33.123Z,0.00
2023-09-08T01:35:33.097Z,0.00
2023-09-08T01:36:33.092Z,0.00
2023-09-08T01:37:33.082Z,0.00
2023-09-08T01:38:33.469Z,0.00
2023-09-08T01:39:33.042Z,0.00
2023-09-08T01:40:33.031Z,0.00
2023-09-08T01:41:33.027Z,0.00
2023-09-08T01:42:32.992Z,0.00
2023-09-08T01:43:32.995Z,0.00
2023-09-08T01:44:33.031Z,0.00
2023-09-08T01:45:33.071Z,0.00
2023-09-08T01:46:32.977Z,0.00
2023-09-08T01:47:32.934Z,0.00
2023-09-08T01:48:33.168Z,0.00
2023-09-08T01:49:32.893Z,0.00
2023-09-08T01:50:32.910Z,0.00
2023-09-08T01:51:32.896Z,0.00
2023-09-08T01:52:32.859Z,0.00
2023-09-08T01:53:32.886Z,0.00
2023-09-08T01:54:32.875Z,0.00
2023-09-08T01:55:32.820Z,0.00
2023-09-08T01:56:32.839Z,0.00
2023-09-08T01:57:32.818Z,0.00
2023-09-08T01:58:33.092Z,0.00
2023-09-08T01:59:32.783Z,0.00
2023-09-08T02:00:32.849Z,0.00
2023-09-08T02:01:32.820Z,0.00
2023-09-08T02:02:32.767Z,0.00
2023-09-08T02:03:32.720Z,0.00
2023-09-08T02:04:32.794Z,0.00
2023-09-08T02:05:32.766Z,0.00
2023-09-08T02:06:32.671Z,0.00
2023-09-08T02:07:32.714Z,0.00
2023-09-08T02:08:33.148Z,0.00
2023-09-08T02:09:32.687Z,0.00
2023-09-08T02:10:32.639Z,0.00
2023-09-08T02:11:32.638Z,0.00
2023-09-08T02:12:32.617Z,0.00
2023-09-08T02:13:32.588Z,0.00
2023-09-08T02:14:32.584Z,0.00
2023-09-08T02:15:32.681Z,0.00
2023-09-08T02:16:32.589Z,0.00
2023-09-08T02:17:32.538Z,0.00
2023-09-08T02:18:32.750Z,0.00
2023-09-08T02:19:32.636Z,0.00
2023-09-08T02:20:32.490Z,0.00
2023-09-08T02:21:32.592Z,0.00
2023-09-08T02:22:32.466Z,0.00
2023-09-08T02:23:32.473Z,0.00
2023-09-08T02:24:32.494Z,0.00
2023-09-08T02:25:32.461Z,0.00
2023-09-08T02:26:32.413Z,0.00
2023-09-08T02:27:32.411Z,0.00
2023-09-08T02:28:32.650Z,0.00
2023-09-08T02:29:32.377Z,0.00
2023-09-08T02:30:32.453Z,0.00
2023-09-08T02:31:32.372Z,0.00
2023-09-08T02:32:32.375Z,0.00
2023-09-08T02:33:32.449Z,0.00
2023-09-08T02:34:32.314Z,0.00
2023-09-08T02:35:32.306Z,0.00
2023-09-08T02:36:32.322Z,0.00
2023-09-08T02:37:32.318Z,0.00
2023-09-08T02:38:32.385Z,0.00
2023-09-08T02:39:32.295Z,0.00
2023-09-08T02:40:32.241Z,0.00
2023-09-08T02:41:32.224Z,0.00
2023-09-08T02:42:32.243Z,0.00
2023-09-08T02:43:32.208Z,0.00
2023-09-08T02:44:32.194Z,0.00
2023-09-08T02:45:33.729Z,0.00
2023-09-08T02:46:32.181Z,0.00
2023-09-08T02:47:32.161Z,0.00
2023-09-08T02:48:32.219Z,0.00
2023-09-08T02:49:32.159Z,0.00
2023-09-08T02:50:32.106Z,0.00
2023-09-08T02:51:32.177Z,0.00
2023-09-08T02:52:32.091Z,0.00
2023-09-08T02:53:32.083Z,0.00
2023-09-08T02:54:32.088Z,0.00
2023-09-08T02:55:32.073Z,0.00
2023-09-08T02:56:32.025Z,0.00
2023-09-08T02:57:32.017Z,0.00
2023-09-08T02:58:32.111Z,0.00
2023-09-08T02:59:32.013Z,0.00
2023-09-08T03:00:32.145Z,0.00
2023-09-08T03:01:38.351Z,0.00
2023-09-08T03:02:32.171Z,0.00
2023-09-08T03:03:32.089Z,0.00
2023-09-08T03:04:31.982Z,0.00
2023-09-08T03:05:38.224Z,0.00
2023-09-08T03:06:31.922Z,0.00
2023-09-08T03:07:31.931Z,0.00
2023-09-08T03:08:31.868Z,0.00
2023-09-08T03:09:31.905Z,0.00
2023-09-08T03:10:31.863Z,0.00
2023-09-08T03:11:31.853Z,0.00
2023-09-08T03:12:31.848Z,0.00
2023-09-08T03:13:31.865Z,0.00
2023-09-08T03:14:31.820Z,0.00
2023-09-08T03:15:31.786Z,0.00
2023-09-08T03:16:31.919Z,0.00
2023-09-08T03:17:31.802Z,0.00
2023-09-08T03:18:31.780Z,0.00
2023-09-08T03:19:31.768Z,0.00
2023-09-08T03:20:31.736Z,0.00
2023-09-08T03:21:31.712Z,0.00
2023-09-08T03:22:37.776Z,0.00
2023-09-08T03:23:31.832Z,0.00
2023-09-08T03:24:31.692Z,0.00
2023-09-08T03:25:31.656Z,0.00
2023-09-08T03:26:31.682Z,0.00
2023-09-08T03:27:31.646Z,0.00
2023-09-08T03:28:31.650Z,0.00
2023-09-08T03:29:31.606Z,0.00
2023-09-08T03:30:31.602Z,0.00
2023-09-08T03:31:31.654Z,0.00
2023-09-08T03:32:31.701Z,0.00
2023-09-08T03:33:31.734Z,0.00
2023-09-08T03:34:31.705Z,0.00
2023-09-08T03:35:31.530Z,0.00
2023-09-08T03:36:31.555Z,0.00
2023-09-08T03:37:31.528Z,0.00
2023-09-08T03:38:31.498Z,0.00
2023-09-08T03:39:31.496Z,0.00
2023-09-08T03:40:31.486Z,0.00
2023-09-08T03:41:31.478Z,0.00
2023-09-08T03:42:31.434Z,0.00
2023-09-08T03:43:31.418Z,0.00
2023-09-08T03:44:31.431Z,0.00
2023-09-08T03:45:31.459Z,0.00
2023-09-08T03:46:31.567Z,0.00
2023-09-08T03:47:31.502Z,0.00
2023-09-08T03:48:31.351Z,0.00
2023-09-08T03:49:31.388Z,0.00
2023-09-08T03:50:31.341Z,0.00
2023-09-08T03:51:31.349Z,0.00
2023-09-08T03:52:31.323Z,0.00
2023-09-08T03:53:31.335Z,0.00
2023-09-08T03:54:31.297Z,0.00
2023-09-08T03:55:31.272Z,0.00
2023-09-08T03:56:31.316Z,0.00
2023-09-08T03:57:31.236Z,0.00
2023-09-08T03:58:31.245Z,0.00
2023-09-08T03:59:31.219Z,0.00
2023-09-08T04:00:31.243Z,0.00
2023-09-08T04:01:31.237Z,0.00
2023-09-08T04:02:31.227Z,0.00
2023-09-08T04:03:31.247Z,0.00
2023-09-08T04:04:31.179Z,0.00
2023-09-08T04:05:31.263Z,0.00
2023-09-08T04:06:31.183Z,0.00
2023-09-08T04:07:31.161Z,0.00
2023-09-08T04:08:31.135Z,0.00
2023-09-08T04:09:31.093Z,0.00
2023-09-08T04:10:31.064Z,0.00
2023-09-08T04:11:31.075Z,0.00
2023-09-08T04:12:31.045Z,0.00
2023-09-08T04:13:31.046Z,0.00
2023-09-08T04:14:31.031Z,0.00
2023-09-08T04:15:31.017Z,0.00
2023-09-08T04:16:30.994Z,0.00
2023-09-08T04:17:31.005Z,0.00
2023-09-08T04:18:31.140Z,0.00
2023-09-08T04:19:30.952Z,0.00
2023-09-08T04:20:30.950Z,5.62
2023-09-08T04:21:30.943Z,5.62
2023-09-08T04:22:30.908Z,5.62
2023-09-08T04:23:30.916Z,5.62
2023-09-08T04:24:30.902Z,5.62
2023-09-08T04:25:30.873Z,5.62
2023-09-08T04:26:30.854Z,5.62
2023-09-08T04:27:30.845Z,11.25
2023-09-08T04:28:30.837Z,11.25
2023-09-08T04:29:30.849Z,11.25
2023-09-08T04:30:30.848Z,11.25
2023-09-08T04:31:30.891Z,11.25
2023-09-08T04:32:30.791Z,16.88
2023-09-08T04:33:30.919Z,16.88
2023-09-08T04:34:30.768Z,16.88
2023-09-08T04:35:30.759Z,16.88
2023-09-08T04:36:30.727Z,16.88
2023-09-08T04:37:30.734Z,22.50
2023-09-08T04:38:30.736Z,22.50
2023-09-08T04:39:30.699Z,22.50
2023-09-08T04:40:30.691Z,28.12
2023-09-08T04:41:30.686Z,28.12
2023-09-08T04:42:30.728Z,28.12
2023-09-08T04:43:30.658Z,28.12
2023-09-08T04:44:30.631Z,33.75
2023-09-08T04:45:30.679Z,33.75
2023-09-08T04:46:30.667Z,39.38
2023-09-08T04:47:30.597Z,39.38
2023-09-08T04:48:31.282Z,39.38
2023-09-08T04:49:30.598Z,45.00
2023-09-08T04:50:30.572Z,45.00
2023-09-08T04:51:30.559Z,45.00
2023-09-08T04:52:30.523Z,50.62
2023-09-08T04:53:30.543Z,50.62
2023-09-08T04:54:30.492Z,50.62
2023-09-08T04:55:30.509Z,56.25
2023-09-08T04:56:30.534Z,56.25
2023-09-08T04:57:30.478Z,61.88
2023-09-08T04:58:30.454Z,61.88
2023-09-08T04:59:30.506Z,61.88
2023-09-08T05:00:30.436Z,67.50
2023-09-08T05:01:30.446Z,67.50
2023-09-08T05:02:30.456Z,67.50
2023-09-08T05:03:30.488Z,73.12
2023-09-08T05:04:30.404Z,73.12
2023-09-08T05:05:30.402Z,78.75
2023-09-08T05:06:30.391Z,78.75
2023-09-08T05:07:30.355Z,78.75
2023-09-08T05:08:30.368Z,84.38
2023-09-08T05:09:30.303Z,84.38
2023-09-08T05:10:30.317Z,84.38
2023-09-08T05:11:30.378Z,90.00
2023-09-08T05:12:30.264Z,90.00
2023-09-08T05:13:31.947Z,90.00
2023-09-08T05:14:30.247Z,95.62
2023-09-08T05:15:30.334Z,95.62
2023-09-08T05:16:30.230Z,95.62
2023-09-08T05:17:30.216Z,101.25
2023-09-08T05:18:30.209Z,101.25
2023-09-08T05:19:30.176Z,101.25
2023-09-08T05:20:30.193Z,101.25
2023-09-08T05:21:30.190Z,106.88
2023-09-08T05:22:30.158Z,106.88
2023-09-08T05:23:30.134Z,106.88
2023-09-08T05:24:30.119Z,112.50
2023-09-08T05:25:30.132Z,112.50
2023-09-08T05:26:30.098Z,112.50
2023-09-08T05:27:30.123Z,118.12
2023-09-08T05:28:30.091Z,118.12
2023-09-08T05:29:30.049Z,123.75
2023-09-08T05:30:30.038Z,123.75
2023-09-08T05:31:30.054Z,123.75
2023-09-08T05:32:30.069Z,123.75
2023-09-08T05:33:30.024Z,129.38
2023-09-08T05:34:30.007Z,129.38
2023-09-08T05:35:29.982Z,129.38
2023-09-08T05:36:30.011Z,135.00
2023-09-08T05:37:29.950Z,135.00
2023-09-08T05:38:29.999Z,135.00
2023-09-08T05:39:29.925Z,135.00
2023-09-08T05:40:29.946Z,135.00
2023-09-08T05:41:29.910Z,140.62
2023-09-08T05:42:29.889Z,135.00
2023-09-08T05:43:30.030Z,140.62
2023-09-08T05:44:29.869Z,140.62
2023-09-08T05:45:29.849Z,140.62
2023-09-08T05:46:29.916Z,146.25
2023-09-08T05:47:29.890Z,146.25
2023-09-08T05:48:29.834Z,146.25
2023-09-08T05:49:29.882Z,146.25
2023-09-08T05:50:29.793Z,151.88
2023-09-08T05:51:29.784Z,151.88
2023-09-08T05:52:29.880Z,151.88
2023-09-08T05:53:29.801Z,151.88
2023-09-08T05:54:29.742Z,157.50
2023-09-08T05:55:29.702Z,157.50
2023-09-08T05:56:29.711Z,157.50
2023-09-08T05:57:29.688Z,157.50
2023-09-08T05:58:29.684Z,163.12
2023-09-08T05:59:29.675Z,163.12
2023-09-08T06:00:29.658Z,163.12
2023-09-08T06:01:29.767Z,163.12
2023-09-08T06:02:29.801Z,168.75
2023-09-08T06:03:29.845Z,168.75
2023-09-08T06:04:29.752Z,168.75
2023-09-08T06:05:29.610Z,168.75
2023-09-08T06:06:29.743Z,174.38
2023-09-08T06:07:29.563Z,174.38
2023-09-08T06:08:29.622Z,174.38
2023-09-08T06:09:29.549Z,174.38
2023-09-08T06:10:29.514Z,180.00
2023-09-08T06:11:29.499Z,180.00
2023-09-08T06:12:29.568Z,180.00
2023-09-08T06:13:29.478Z,180.00
2023-09-08T06:14:29.487Z,180.00
2023-09-08T06:15:29.577Z,185.62
2023-09-08T06:16:29.547Z,185.62
2023-09-08T06:17:29.457Z,185.62
2023-09-08T06:18:29.442Z,185.62
2023-09-08T06:19:29.404Z,191.25
2023-09-08T06:20:29.431Z,191.25
2023-09-08T06:21:29.388Z,191.25
2023-09-08T06:22:29.385Z,191.25
2023-09-08T06:23:29.351Z,191.25
2023-09-08T06:24:29.344Z,196.88
2023-09-08T06:25:29.330Z,196.88
2023-09-08T06:26:29.421Z,196.88
2023-09-08T06:27:29.299Z,196.88
2023-09-08T06:28:29.327Z,196.88
2023-09-08T06:29:29.277Z,196.88
2023-09-08T06:30:29.272Z,202.50
2023-09-08T06:31:29.261Z,202.50
2023-09-08T06:32:29.289Z,202.50
2023-09-08T06:33:29.315Z,202.50
2023-09-08T06:34:29.351Z,202.50
2023-09-08T06:35:29.180Z,202.50
2023-09-08T06:36:29.224Z,208.12
2023-09-08T06:37:29.218Z,208.12
2023-09-08T06:38:29.158Z,208.12
2023-09-08T06:39:29.219Z,208.12
2023-09-08T06:40:29.137Z,208.12
2023-09-08T06:41:29.109Z,208.12
2023-09-08T06:42:29.128Z,213.75
2023-09-08T06:43:29.098Z,213.75
2023-09-08T06:44:29.067Z,213.75
2023-09-08T06:45:29.070Z,213.75
2023-09-08T06:46:29.081Z,213.75
2023-09-08T06:47:29.105Z,213.75
2023-09-08T06:48:29.082Z,213.75
2023-09-08T06:49:29.019Z,219.38
2023-09-08T06:50:29.048Z,219.38
2023-09-08T06:51:29.008Z,219.38
2023-09-08T06:52:28.988Z,219.38
2023-09-08T06:53:28.973Z,219.38
2023-09-08T06:54:28.974Z,219.38
2023-09-08T06:55:28.951Z,219.38
2023-09-08T06:56:28.945Z,219.38
2023-09-08T06:57:28.996Z,219.38
2023-09-08T06:58:28.892Z,219.38
2023-09-08T06:59:28.892Z,219.38
2023-09-08T07:00:28.874Z,219.38
2023-09-08T07:01:28.956Z,219.38
2023-09-08T07:02:28.894Z,225.00
2023-09-08T07:03:29.016Z,225.00
2023-09-08T07:04:28.849Z,225.00
2023-09-08T07:05:28.830Z,225.00
2023-09-08T07:06:28.828Z,225.00
2023-09-08T07:07:28.771Z,225.00
2023-09-08T07:08:28.780Z,225.00
2023-09-08T07:09:28.741Z,225.00
2023-09-08T07:10:28.755Z,225.00
2023-09-08T07:11:28.718Z,230.62
2023-09-08T07:12:28.719Z,230.62
2023-09-08T07:13:28.752Z,230.62
2023-09-08T07:14:28.697Z,230.62
2023-09-08T07:15:28.676Z,230.62
2023-09-08T07:16:28.757Z,230.62
2023-09-08T07:17:28.776Z,230.62
2023-09-08T07:18:28.658Z,230.62
2023-09-08T07:19:28.708Z,230.62
2023-09-08T07:20:28.622Z,236.25
2023-09-08T07:21:28.695Z,236.25
2023-09-08T07:22:28.689Z,236.25
2023-09-08T07:23:28.582Z,236.25
2023-09-08T07:24:28.563Z,236.25
2023-09-08T07:25:28.651Z,241.88
2023-09-08T07:26:28.543Z,236.25
2023-09-08T07:27:28.528Z,236.25
2023-09-08T07:28:28.510Z,236.25
2023-09-08T07:29:28.503Z,236.25
2023-09-08T07:30:28.537Z,241.88
2023-09-08T07:31:28.483Z,241.88
2023-09-08T07:32:28.509Z,241.88
2023-09-08T07:33:28.516Z,241.88
2023-09-08T07:34:28.441Z,241.88
2023-09-08T07:35:28.425Z,241.88
2023-09-08T07:36:28.446Z,241.88
2023-09-08T07:37:28.403Z,241.88
2023-09-08T07:38:28.448Z,241.88
2023-09-08T07:39:28.370Z,241.88
2023-09-08T07:40:28.363Z,247.50
2023-09-08T07:41:28.328Z,247.50
2023-09-08T07:42:28.352Z,247.50
2023-09-08T07:43:28.425Z,247.50
2023-09-08T07:44:28.413Z,247.50
2023-09-08T07:45:28.309Z,247.50
2023-09-08T07:46:28.308Z,247.50
2023-09-08T07:47:29.623Z,247.50
2023-09-08T07:48:28.386Z,247.50
2023-09-08T07:49:28.392Z,247.50
2023-09-08T07:50:28.214Z,247.50
2023-09-08T07:51:28.237Z,247.50
2023-09-08T07:52:28.195Z,247.50
2023-09-08T07:53:28.213Z,247.50
2023-09-08T07:54:28.182Z,253.12
2023-09-08T07:55:28.226Z,253.12
2023-09-08T07:56:28.219Z,253.12
2023-09-08T07:57:28.132Z,253.12
2023-09-08T07:58:28.130Z,253.12
2023-09-08T07:59:28.104Z,253.12
2023-09-08T08:00:28.097Z,253.12
2023-09-08T08:01:28.083Z,253.12
2023-09-08T08:02:28.149Z,253.12
2023-09-08T08:03:28.110Z,253.12
2023-09-08T08:04:28.122Z,253.12
2023-09-08T08:05:28.172Z,253.12
2023-09-08T08:06:28.032Z,253.12
2023-09-08T08:07:27.999Z,253.12
2023-09-08T08:08:28.084Z,253.12
2023-09-08T08:09:27.979Z,253.12
2023-09-08T08:10:27.977Z,258.75
2023-09-08T08:11:27.972Z,258.75
2023-09-08T08:12:27.951Z,258.75
2023-09-08T08:13:27.939Z,258.75
2023-09-08T08:14:27.925Z,258.75
2023-09-08T08:15:27.954Z,258.75
2023-09-08T08:16:27.972Z,258.75
2023-09-08T08:17:27.923Z,258.75
2023-09-08T08:18:27.939Z,258.75
2023-09-08T08:19:27.841Z,258.75
2023-09-08T08:20:27.886Z,258.75
2023-09-08T08:21:27.876Z,258.75
2023-09-08T08:22:27.840Z,258.75
2023-09-08T08:23:27.812Z,258.75
2023-09-08T08:24:27.829Z,258.75
2023-09-08T08:25:27.771Z,264.38
2023-09-08T08:26:27.783Z,264.38
2023-09-08T08:27:27.800Z,264.38
2023-09-08T08:28:27.741Z,264.38
2023-09-08T08:29:27.762Z,264.38
2023-09-08T08:30:27.750Z,264.38
2023-09-08T08:31:27.822Z,264.38
2023-09-08T08:32:27.753Z,264.38
2023-09-08T08:33:27.752Z,258.75
2023-09-08T08:34:27.670Z,258.75
2023-09-08T08:35:27.679Z,258.75
2023-09-08T08:36:27.684Z,258.75
2023-09-08T08:37:27.633Z,258.75
2023-09-08T08:38:27.651Z,258.75
2023-09-08T08:39:27.594Z,258.75
2023-09-08T08:40:27.601Z,258.75
2023-09-08T08:41:27.673Z,258.75
2023-09-08T08:42:27.545Z,258.75
2023-09-08T08:43:27.601Z,258.75
2023-09-08T08:44:27.563Z,258.75
2023-09-08T08:45:27.529Z,264.38
2023-09-08T08:46:27.524Z,264.38
2023-09-08T08:47:27.600Z,264.38
2023-09-08T08:48:27.468Z,264.38
2023-09-08T08:49:27.463Z,264.38
2023-09-08T08:50:28.175Z,264.38
2023-09-08T08:51:27.505Z,270.00
2023-09-08T08:52:27.430Z,270.00
2023-09-08T08:53:27.427Z,270.00
2023-09-08T08:54:27.475Z,264.38
2023-09-08T08:55:27.401Z,264.38
2023-09-08T08:56:27.387Z,264.38
2023-09-08T08:57:27.437Z,264.38
2023-09-08T08:58:27.344Z,270.00
2023-09-08T08:59:27.348Z,270.00
2023-09-08T09:00:27.350Z,270.00
2023-09-08T09:01:27.380Z,270.00
2023-09-08T09:02:27.311Z,270.00
2023-09-08T09:03:27.308Z,270.00
2023-09-08T09:04:27.337Z,270.00
2023-09-08T09:05:27.310Z,270.00
2023-09-08T09:06:27.273Z,270.00
2023-09-08T09:07:27.289Z,270.00
2023-09-08T09:08:27.219Z,270.00
2023-09-08T09:09:27.240Z,275.62
2023-09-08T09:10:27.220Z,270.00
2023-09-08T09:11:27.276Z,270.00
2023-09-08T09:12:27.187Z,270.00
2023-09-08T09:13:27.162Z,270.00
2023-09-08T09:14:27.165Z,270.00
2023-09-08T09:15:27.131Z,270.00
2023-09-08T09:16:27.162Z,270.00
2023-09-08T09:17:27.132Z,275.62
2023-09-08T09:18:27.158Z,275.62
2023-09-08T09:19:27.102Z,275.62
2023-09-08T09:20:27.077Z,275.62
2023-09-08T09:21:27.054Z,275.62
2023-09-08T09:22:27.071Z,275.62
2023-09-08T09:23:33.030Z,275.62
2023-09-08T09:24:27.090Z,275.62
2023-09-08T09:25:27.342Z,275.62
2023-09-08T09:26:27.014Z,275.62
2023-09-08T09:27:27.041Z,275.62
2023-09-08T09:28:26.974Z,275.62
2023-09-08T09:29:26.987Z,275.62
2023-09-08T09:30:26.971Z,275.62
2023-09-08T09:31:26.966Z,275.62
2023-09-08T09:32:26.922Z,275.62
2023-09-08T09:33:26.941Z,275.62
2023-09-08T09:34:26.915Z,275.62
2023-09-08T09:35:26.908Z,281.25
2023-09-08T09:36:26.860Z,281.25
2023-09-08T09:37:26.895Z,281.25
2023-09-08T09:38:26.869Z,281.25
2023-09-08T09:39:26.868Z,281.25
2023-09-08T09:40:26.830Z,281.25
2023-09-08T09:41:26.827Z,281.25
2023-09-08T09:42:26.810Z,281.25
2023-09-08T09:43:26.838Z,281.25
2023-09-08T09:44:26.861Z,286.88
2023-09-08T09:45:26.810Z,281.25
2023-09-08T09:46:26.768Z,281.25
2023-09-08T09:47:26.800Z,281.25
2023-09-08T09:48:26.778Z,281.25
2023-09-08T09:49:26.723Z,281.25
2023-09-08T09:50:26.703Z,281.25
2023-09-08T09:51:26.676Z,281.25
2023-09-08T09:52:26.689Z,286.88
2023-09-08T09:53:26.674Z,286.88
2023-09-08T09:54:26.666Z,286.88
2023-09-08T09:55:26.641Z,286.88
2023-09-08T09:56:26.607Z,286.88
2023-09-08T09:57:26.605Z,286.88
2023-09-08T09:58:26.625Z,286.88
2023-09-08T09:59:26.583Z,286.88
2023-09-08T10:00:26.638Z,292.50
2023-09-08T10:01:26.624Z,292.50
2023-09-08T10:02:26.601Z,292.50
2023-09-08T10:03:26.615Z,292.50
2023-09-08T10:04:26.505Z,292.50
2023-09-08T10:05:26.518Z,292.50
2023-09-08T10:06:26.580Z,292.50
2023-09-08T10:07:26.488Z,292.50
2023-09-08T10:08:26.464Z,303.75
2023-09-08T10:09:26.453Z,298.12
2023-09-08T10:10:26.422Z,298.12
2023-09-08T10:11:26.452Z,298.12
2023-09-08T10:12:26.441Z,298.12
2023-09-08T10:13:26.408Z,298.12
2023-09-08T10:14:26.379Z,298.12
2023-09-08T10:15:26.408Z,298.12
2023-09-08T10:16:26.403Z,298.12
2023-09-08T10:17:26.366Z,303.75
2023-09-08T10:18:26.468Z,303.75
2023-09-08T10:19:26.329Z,303.75
2023-09-08T10:20:26.325Z,303.75
2023-09-08T10:21:26.292Z,303.75
2023-09-08T10:22:26.266Z,303.75
2023-09-08T10:23:26.293Z,309.38
2023-09-08T10:24:26.334Z,309.38
2023-09-08T10:25:26.238Z,309.38
2023-09-08T10:26:26.224Z,315.00
2023-09-08T10:27:26.270Z,309.38
2023-09-08T10:28:26.225Z,315.00
2023-09-08T10:29:26.185Z,309.38
2023-09-08T10:30:26.266Z,315.00
2023-09-08T10:31:26.257Z,309.38
2023-09-08T10:32:26.260Z,309.38
2023-09-08T10:33:26.148Z,315.00
2023-09-08T10:34:26.142Z,315.00
2023-09-08T10:35:26.120Z,315.00
2023-09-08T10:36:26.199Z,315.00
2023-09-08T10:37:26.118Z,315.00
2023-09-08T10:38:26.094Z,320.62
2023-09-08T10:39:26.098Z,315.00
2023-09-08T10:40:26.072Z,315.00
2023-09-08T10:41:26.061Z,315.00
2023-09-08T10:42:26.105Z,315.00
2023-09-08T10:43:26.032Z,315.00
2023-09-08T10:44:26.049Z,320.62
2023-09-08T10:45:26.057Z,315.00
2023-09-08T10:46:26.002Z,315.00
2023-09-08T10:47:25.985Z,315.00
2023-09-08T10:48:26.115Z,315.00
2023-09-08T10:49:25.932Z,320.62
2023-09-08T10:50:25.922Z,320.62
2023-09-08T10:51:25.922Z,320.62
2023-09-08T10:52:25.979Z,320.62
2023-09-08T10:53:25.886Z,320.62
2023-09-08T10:54:25.900Z,320.62
2023-09-08T10:55:25.880Z,320.62
2023-09-08T10:56:25.866Z,320.62
2023-09-08T10:57:25.863Z,320.62
2023-09-08T10:58:28.020Z,320.62
2023-09-08T10:59:25.832Z,326.25
2023-09-08T11:00:25.810Z,326.25
2023-09-08T11:01:25.814Z,326.25
2023-09-08T11:02:25.795Z,326.25
2023-09-08T11:03:25.965Z,326.25
2023-09-08T11:04:25.895Z,326.25
2023-09-08T11:05:25.755Z,326.25
2023-09-08T11:06:25.742Z,326.25
2023-09-08T11:07:25.702Z,326.25
2023-09-08T11:08:27.211Z,326.25
2023-09-08T11:09:25.677Z,326.25
2023-09-08T11:10:25.685Z,331.88
2023-09-08T11:11:25.691Z,326.25
2023-09-08T11:12:25.654Z,326.25
2023-09-08T11:13:25.628Z,326.25
2023-09-08T11:14:25.621Z,326.25
2023-09-08T11:15:25.680Z,326.25
2023-09-08T11:16:25.677Z,326.25
2023-09-08T11:17:25.622Z,326.25
2023-09-08T11:18:25.692Z,326.25
2023-09-08T11:19:25.596Z,326.25
2023-09-08T11:20:25.598Z,326.25
2023-09-08T11:21:25.796Z,326.25
2023-09-08T11:22:25.516Z,326.25
2023-09-08T11:23:25.541Z,326.25
2023-09-08T11:24:25.533Z,326.25
2023-09-08T11:25:25.485Z,326.25
2023-09-08T11:26:25.496Z,331.88
2023-09-08T11:27:25.481Z,331.88
2023-09-08T11:28:25.486Z,331.88
2023-09-08T11:29:25.444Z,331.88
2023-09-08T11:30:25.404Z,331.88
2023-09-08T11:31:25.436Z,331.88
2023-09-08T11:32:25.426Z,331.88
2023-09-08T11:33:25.406Z,331.88
2023-09-08T11:34:25.366Z,331.88
2023-09-08T11:35:25.346Z,331.88
2023-09-08T11:36:25.344Z,337.50
2023-09-08T11:37:25.322Z,337.50
2023-09-08T11:38:25.320Z,337.50
2023-09-08T11:39:25.311Z,337.50
2023-09-08T11:40:25.278Z,337.50
2023-09-08T11:41:25.343Z,337.50
2023-09-08T11:42:25.250Z,337.50
2023-09-08T11:43:25.268Z,337.50
2023-09-08T11:44:25.406Z,337.50
2023-09-08T11:45:25.234Z,348.75
2023-09-08T11:46:25.313Z,343.12
2023-09-08T11:47:25.209Z,343.12
2023-09-08T11:48:25.206Z,343.12
2023-09-08T11:49:25.187Z,343.12
2023-09-08T11:50:25.189Z,343.12
2023-09-08T11:51:25.162Z,343.12
2023-09-08T11:52:25.274Z,343.12
2023-09-08T11:53:25.129Z,343.12
2023-09-08T11:54:25.103Z,343.12
2023-09-08T11:55:25.106Z,343.12
2023-09-08T11:56:25.095Z,343.12
2023-09-08T11:57:25.081Z,343.12
2023-09-08T11:58:25.091Z,343.12
2023-09-08T11:59:25.056Z,348.75
2023-09-08T12:00:25.048Z,348.75
2023-09-08T12:01:25.033Z,348.75
2023-09-08T12:02:25.057Z,348.75
2023-09-08T12:03:25.065Z,348.75
2023-09-08T12:04:25.060Z,348.75
2023-09-08T12:05:25.096Z,348.75
2023-09-08T12:06:24.970Z,348.75
2023-09-08T12:07:24.956Z,354.38
2023-09-08T12:08:24.940Z,354.38
2023-09-08T12:09:24.930Z,354.38
2023-09-08T12:10:24.935Z,354.38
2023-09-08T12:11:24.914Z,354.38
2023-09-08T12:12:24.893Z,354.38
2023-09-08T12:13:24.904Z,360.00
2023-09-08T12:14:24.857Z,360.00
2023-09-08T12:15:24.852Z,360.00
2023-09-08T12:16:24.945Z,360.00
2023-09-08T12:17:24.867Z,365.62
2023-09-08T12:18:24.812Z,365.62
2023-09-08T12:19:24.797Z,365.62
2023-09-08T12:20:24.791Z,365.62
2023-09-08T12:21:24.771Z,365.62
2023-09-08T12:22:24.763Z,365.62
2023-09-08T12:23:24.764Z,365.62
2023-09-08T12:24:24.798Z,371.25
2023-09-08T12:25:24.736Z,371.25
2023-09-08T12:26:24.737Z,371.25
2023-09-08T12:27:24.730Z,371.25
2023-09-08T12:28:24.749Z,376.88
2023-09-08T12:29:24.695Z,376.88
2023-09-08T12:30:24.665Z,376.88
2023-09-08T12:31:24.742Z,376.88
2023-09-08T12:32:24.619Z,376.88
2023-09-08T12:33:24.608Z,382.50
2023-09-08T12:34:24.630Z,382.50
2023-09-08T12:35:24.592Z,382.50
2023-09-08T12:36:24.583Z,382.50
2023-09-08T12:37:24.619Z,382.50
2023-09-08T12:38:24.578Z,382.50
2023-09-08T12:39:24.532Z,388.12
2023-09-08T12:40:24.575Z,388.12
2023-09-08T12:41:24.528Z,388.12
2023-09-08T12:42:24.520Z,388.12
2023-09-08T12:43:28.447Z,393.75
2023-09-08T12:44:24.516Z,393.75
2023-09-08T12:45:24.486Z,399.38
2023-09-08T12:46:24.494Z,399.38